Time;durP1;ratioP1;P1;durP2;ratioP2;P2;SDS_P1;SDS_P2;PMS_P1;PMS_P2;Temp;Humidity;BMP_temperature;BMP_pressure;BME280_temperature;BME280_humidity;BME280_pressure;Samples;Min_cycle;Max_cycle;Signal;HPM_P1;HPM_P2
2022/05/25 00:00:22;;;;;;;3.70;3.07;;;;;;;11.02;86.62;101148.66;5009256;28;20198;-72
2022/05/25 00:02:48;;;;;;;3.60;2.77;;;;;;;11.00;86.36;101155.47;5009044;28;20186;-72
2022/05/25 00:05:14;;;;;;;3.27;2.97;;;;;;;10.98;86.96;101169.06;5009647;28;20179;-72
2022/05/25 00:07:40;;;;;;;3.53;3.23;;;;;;;10.97;87.40;101163.06;5007338;28;20222;-72
2022/05/25 00:10:05;;;;;;;3.93;3.17;;;;;;;10.96;86.79;101171.59;5008826;28;20195;-72
2022/05/25 00:12:31;;;;;;;3.50;3.20;;;;;;;10.96;87.42;101181.84;5009281;28;20215;-72
2022/05/25 00:14:57;;;;;;;3.20;2.90;;;;;;;10.94;87.30;101185.19;5007371;28;20202;-71
2022/05/25 00:17:22;;;;;;;3.77;3.33;;;;;;;10.90;87.28;101188.50;5007565;28;20215;-72
2022/05/25 00:20:00;;;;;;;3.97;3.53;;;;;;;10.84;88.15;101196.94;5008565;28;20804;-72
2022/05/25 00:22:46;;;;;;;4.83;3.73;;;;;;;10.89;87.37;101197.91;5009229;28;20198;-72
2022/05/25 00:25:19;;;;;;;4.63;3.27;;;;;;;10.92;87.24;101199.69;5012241;28;20187;-71
2022/05/25 00:27:44;;;;;;;3.43;3.13;;;;;;;10.92;87.32;101199.69;4993123;28;20674;-72
2022/05/25 00:30:11;;;;;;;4.43;3.70;;;;;;;10.87;87.37;101202.13;4992789;28;20210;-71
2022/05/25 00:32:36;;;;;;;4.20;3.80;;;;;;;10.86;87.95;101197.84;5011479;28;20687;-71
2022/05/25 00:35:04;;;;;;;4.70;3.97;;;;;;;10.90;87.58;101204.75;5012563;28;20223;-72
2022/05/25 00:37:29;;;;;;;3.80;3.50;;;;;;;10.95;87.68;101205.75;5010560;28;20214;-72
2022/05/25 00:39:55;;;;;;;4.70;3.53;;;;;;;10.96;87.72;101193.81;5007749;28;20200;-71
2022/05/25 00:42:20;;;;;;;3.97;3.67;;;;;;;11.02;87.84;101194.78;5008312;28;20201;-72
2022/05/25 00:44:46;;;;;;;5.10;4.60;;;;;;;11.05;87.71;101201.69;5012186;28;20195;-72
2022/05/25 00:47:16;;;;;;;4.93;4.43;;;;;;;11.03;87.66;101190.53;5011450;28;20223;-71
2022/05/25 00:49:42;;;;;;;4.77;4.37;;;;;;;11.10;87.66;101195.84;5012550;28;20186;-72
2022/05/25 00:52:13;;;;;;;4.60;4.20;;;;;;;11.12;88.02;101198.44;5012208;28;20191;-71
2022/05/25 00:54:49;;;;;;;5.00;3.90;;;;;;;11.16;87.56;101208.78;5011689;28;20183;-71
2022/05/25 00:57:22;;;;;;;4.30;3.90;;;;;;;11.19;87.63;101205.41;5012147;28;20627;-72
2022/05/25 01:00:07;;;;;;;4.50;3.53;;;;;;;11.21;87.72;101204.66;5011587;28;20597;-72
2022/05/25 01:02:42;;;;;;;4.63;4.00;;;;;;;11.20;87.95;101200.31;5007622;28;20188;-72
2022/05/25 01:05:08;;;;;;;5.23;4.43;;;;;;;11.18;88.30;101207.13;4990735;28;20183;-72
2022/05/25 01:07:40;;;;;;;6.03;3.90;;;;;;;11.21;88.08;101206.34;5010555;28;20750;-72
2022/05/25 01:10:17;;;;;;;5.20;3.90;;;;;;;11.19;88.07;101203.72;5011009;28;20206;-72
2022/05/25 01:13:01;;;;;;;4.80;4.33;;;;;;;11.22;87.73;101206.38;5011924;28;20190;-72
2022/05/25 01:15:55;;;;;;;4.63;4.10;;;;;;;11.27;87.46;101209.03;5011444;28;20187;-72
2022/05/25 01:18:39;;;;;;;4.40;4.00;;;;;;;11.25;87.74;101213.25;5002817;28;20296;-72
2022/05/25 01:21:22;;;;;;;6.70;4.77;;;;;;;11.21;87.96;101208.91;5010363;28;20561;-72
2022/05/25 01:24:08;;;;;;;4.53;4.13;;;;;;;11.22;88.24;101210.63;5011447;28;20191;-72
2022/05/25 01:27:10;;;;;;;6.83;5.10;;;;;;;11.15;88.63;101219.03;5011034;28;20202;-72
2022/05/25 01:30:03;;;;;;;5.73;4.50;;;;;;;11.16;88.25;101223.31;5011667;28;20278;-72
2022/05/25 01:33:02;;;;;;;9.63;4.87;;;;;;;11.16;88.06;101220.75;4991658;28;20262;-72
2022/05/25 01:35:53;;;;;;;5.57;4.97;;;;;;;11.14;88.39;101218.16;5006534;28;20191;-72
2022/05/25 01:38:38;;;;;;;5.10;4.60;;;;;;;11.11;88.58;101230.88;5010826;28;20233;-72
2022/05/25 01:41:18;;;;;;;6.73;4.73;;;;;;;11.08;88.50;101237.63;5010016;28;20784;-72
2022/05/25 01:43:51;;;;;;;5.27;4.83;;;;;;;11.07;87.88;101235.91;5009426;28;20175;-72
2022/05/25 01:46:22;;;;;;;5.40;4.90;;;;;;;11.06;88.50;101237.59;5011216;28;20221;-72
2022/05/25 01:48:49;;;;;;;5.70;5.03;;;;;;;11.02;88.42;101240.06;5010768;28;20288;-72
2022/05/25 01:51:20;;;;;;;6.23;5.20;;;;;;;11.04;88.50;101239.28;5011245;28;20201;-72
2022/05/25 01:53:51;;;;;;;6.77;5.10;;;;;;;11.05;88.56;101233.31;5010590;28;20194;-72
2022/05/25 01:56:20;;;;;;;5.93;5.17;;;;;;;11.02;89.10;101238.34;5011125;28;20218;-72
2022/05/25 01:58:48;;;;;;;5.57;4.97;;;;;;;11.00;89.16;101245.16;5010967;28;20207;-72
2022/05/25 02:01:14;;;;;;;8.47;5.30;;;;;;;10.98;89.43;101244.25;5010588;28;20187;-71
2022/05/25 02:06:45;;;;;;;6.70;6.00;;;;;;;10.89;90.00;101245.72;5010338;28;20704;-72
2022/05/25 02:09:33;;;;;;;5.90;5.30;;;;;;;10.89;89.67;101240.59;5010801;28;20175;-72
2022/05/25 02:12:18;;;;;;;6.20;5.60;;;;;;;10.88;89.55;101247.41;4992876;28;20290;-72
2022/05/25 02:14:59;;;;;;;6.20;5.60;;;;;;;10.88;89.58;101242.28;5010619;28;20198;-72
2022/05/25 02:17:50;;;;;;;6.80;5.63;;;;;;;10.83;89.77;101243.00;5010127;28;20222;-71
2022/05/25 02:20:54;;;;;;;6.23;5.50;;;;;;;10.70;90.27;101246.09;5009469;28;20195;-72
2022/05/25 02:23:26;;;;;;;5.73;5.13;;;;;;;10.70;89.92;101238.41;4989061;28;20665;-72
2022/05/25 02:26:16;;;;;;;6.23;5.63;;;;;;;10.69;89.88;101240.09;4996827;28;20219;-72
2022/05/25 02:29:19;;;;;;;9.50;5.77;;;;;;;10.70;89.53;101241.81;5010073;28;20240;-72
2022/05/25 02:31:53;;;;;;;5.90;5.37;;;;;;;10.65;89.85;101240.84;5010079;28;20201;-72
2022/05/25 02:34:21;;;;;;;6.77;5.80;;;;;;;10.68;89.54;101235.81;5010144;28;20180;-72
2022/05/25 02:36:48;;;;;;;6.87;6.20;;;;;;;10.70;90.34;101230.72;5009306;28;20257;-72
2022/05/25 02:39:14;;;;;;;7.97;6.70;;;;;;;10.67;90.81;101228.06;4992217;28;20214;-72
2022/05/25 02:41:48;;;;;;;7.37;6.67;;;;;;;10.64;90.67;101233.16;5010560;28;20264;-72
2022/05/25 02:44:13;;;;;;;8.40;6.67;;;;;;;10.61;90.33;101228.81;5009713;28;20183;-72
2022/05/25 02:46:39;;;;;;;6.87;6.17;;;;;;;10.60;90.48;101232.19;5008037;28;20215;-72
2022/05/25 02:49:04;;;;;;;7.57;5.77;;;;;;;10.63;90.09;101229.69;5010617;28;20186;-72
2022/05/25 02:51:29;;;;;;;6.83;6.23;;;;;;;10.53;90.32;101234.53;5009640;28;20199;-72
2022/05/25 02:53:55;;;;;;;7.10;6.13;;;;;;;10.43;91.19;101246.25;5010226;28;20248;-72
2022/05/25 02:56:20;;;;;;;6.90;5.90;;;;;;;10.45;90.97;101248.84;5009640;28;20211;-72
2022/05/25 02:58:45;;;;;;;6.83;6.17;;;;;;;10.45;91.71;101248.84;5010003;28;20293;-72
2022/05/25 03:01:11;;;;;;;7.10;6.40;;;;;;;10.46;91.85;101246.31;5009479;28;20274;-72
2022/05/25 03:03:38;;;;;;;6.93;5.90;;;;;;;10.51;91.69;101249.88;5009881;28;20274;-72
2022/05/25 03:06:07;;;;;;;6.37;5.77;;;;;;;10.56;90.91;101250.00;5008578;28;20239;-72
2022/05/25 03:08:33;;;;;;;6.60;6.00;;;;;;;10.49;90.85;101254.09;5009629;28;20210;-72
2022/05/25 03:10:58;;;;;;;7.83;7.10;;;;;;;10.56;90.78;101258.53;5009919;28;20600;-72
2022/05/25 03:13:24;;;;;;;7.63;6.90;;;;;;;10.58;90.76;101256.88;5009425;28;20227;-72
2022/05/25 03:15:49;;;;;;;8.03;7.27;;;;;;;10.57;90.77;101260.28;5008640;28;20207;-72
2022/05/25 03:18:15;;;;;;;9.37;7.17;;;;;;;10.55;90.89;101261.91;5009399;28;20225;-72
2022/05/25 03:20:40;;;;;;;7.47;6.77;;;;;;;10.53;91.03;101260.16;5009891;28;20273;-72
2022/05/25 03:23:06;;;;;;;7.20;6.50;;;;;;;10.52;90.22;101266.97;5009242;28;20191;-72
2022/05/25 03:25:31;;;;;;;7.50;6.33;;;;;;;10.48;90.33;101266.84;5009787;28;20184;-72
2022/05/25 03:27:56;;;;;;;8.37;6.50;;;;;;;10.47;90.64;101273.66;5009815;28;20190;-72
2022/05/25 03:30:22;;;;;;;7.70;7.00;;;;;;;10.49;90.90;101274.56;5009268;28;20570;-72
2022/05/25 03:32:48;;;;;;;7.27;6.53;;;;;;;10.48;90.44;101271.97;5009743;28;20728;-72
2022/05/25 03:35:14;;;;;;;10.67;7.03;;;;;;;10.42;90.65;101275.22;5009183;28;20187;-72
2022/05/25 03:37:39;;;;;;;8.77;7.67;;;;;;;10.41;91.22;101286.28;5009501;28;20250;-71
2022/05/25 03:40:09;;;;;;;9.53;8.37;;;;;;;10.42;90.54;101292.28;5009256;28;20286;-72
2022/05/25 03:42:35;;;;;;;9.47;7.53;;;;;;;10.44;90.49;101288.06;5008520;28;20202;-72
2022/05/25 03:45:03;;;;;;;9.13;8.23;;;;;;;10.47;90.78;101289.00;5009557;28;20191;-72
2022/05/25 03:47:29;;;;;;;8.37;7.57;;;;;;;10.48;90.70;101283.09;5009311;28;20539;-72
2022/05/25 03:49:54;;;;;;;10.30;8.07;;;;;;;10.41;90.67;101293.13;5008524;28;20256;-72
2022/05/25 03:52:21;;;;;;;9.17;8.20;;;;;;;10.44;90.64;101295.75;5003280;28;20210;-72
2022/05/25 03:54:46;;;;;;;8.73;7.00;;;;;;;10.46;90.69;101292.41;5002355;28;20334;-72
2022/05/25 03:57:11;;;;;;;9.87;8.13;;;;;;;10.48;90.42;101295.00;4999672;28;20214;-72
2022/05/25 03:59:37;;;;;;;8.67;7.77;;;;;;;10.50;90.50;101295.94;5005158;28;20226;-72
2022/05/25 04:02:02;;;;;;;9.30;8.40;;;;;;;10.50;90.57;101294.22;5001022;28;20187;-72
2022/05/25 04:04:27;;;;;;;9.57;8.57;;;;;;;10.47;90.71;101296.69;5022195;28;20202;-72
2022/05/25 04:06:53;;;;;;;9.03;8.13;;;;;;;10.47;90.16;101299.25;4994248;28;20239;-72
2022/05/25 04:09:18;;;;;;;10.47;8.90;;;;;;;10.45;90.78;101300.91;5005785;28;20218;-72
2022/05/25 04:11:43;;;;;;;8.93;8.03;;;;;;;10.45;91.39;101302.59;5006258;28;20198;-72
2022/05/25 04:14:09;;;;;;;9.47;8.53;;;;;;;10.45;90.73;101305.16;4992886;28;20196;-72
2022/05/25 04:16:35;;;;;;;10.40;9.03;;;;;;;10.46;90.32;101307.75;4994896;28;20278;-72
2022/05/25 04:19:00;;;;;;;12.20;9.53;;;;;;;10.39;91.77;101312.69;4996950;28;20563;-72
2022/05/25 04:21:26;;;;;;;11.03;9.93;;;;;;;10.35;91.80;101309.19;5006058;28;20656;-72
2022/05/25 04:23:52;;;;;;;11.00;9.90;;;;;;;10.41;91.53;101313.59;4998212;28;20211;-72
2022/05/25 04:26:17;;;;;;;11.27;9.53;;;;;;;10.44;91.36;101311.09;5005684;28;20300;-72
2022/05/25 04:28:42;;;;;;;13.83;9.50;;;;;;;10.52;91.07;101310.50;4999842;28;20681;-72
2022/05/25 04:31:08;;;;;;;9.90;8.90;;;;;;;10.61;90.52;101308.19;4992770;28;20932;-72
2022/05/25 04:33:36;;;;;;;10.43;9.33;;;;;;;10.71;90.42;101315.28;5000110;28;20211;-72
2022/05/25 04:36:03;;;;;;;11.40;9.67;;;;;;;10.64;90.42;101326.19;4998852;28;20220;-71
2022/05/25 04:38:28;;;;;;;11.57;10.37;;;;;;;10.70;90.43;101325.50;4999082;28;20204;-72
2022/05/25 04:40:54;;;;;;;11.43;10.23;;;;;;;10.72;90.53;101326.38;5006349;28;20182;-72
2022/05/25 04:43:22;;;;;;;12.30;11.00;;;;;;;10.79;90.91;101323.16;5006366;28;20829;-72
2022/05/25 04:45:51;;;;;;;12.00;10.80;;;;;;;10.85;91.00;101325.88;5005816;28;20225;-72
2022/05/25 04:48:21;;;;;;;12.40;11.20;;;;;;;10.94;90.75;101323.56;5001799;28;20184;-72
2022/05/25 04:50:47;;;;;;;11.87;10.67;;;;;;;11.02;89.81;101325.47;5005048;28;20214;-71
2022/05/25 04:53:14;;;;;;;12.07;10.67;;;;;;;11.08;89.43;101328.22;5007268;28;20294;-72
2022/05/25 04:58:43;;;;;;;13.43;10.37;;;;;;;11.26;88.29;101327.78;5011296;28;20207;-72
2022/05/25 05:01:10;;;;;;;11.07;9.90;;;;;;;11.33;88.44;101333.09;4992761;28;20191;-72
2022/05/25 05:03:36;;;;;;;10.83;9.73;;;;;;;11.40;88.05;101339.25;5001974;28;20195;-71
2022/05/25 05:06:02;;;;;;;11.17;10.07;;;;;;;11.50;87.83;101326.69;5012319;28;20570;-72
2022/05/25 05:08:27;;;;;;;12.50;11.17;;;;;;;11.55;87.60;101329.31;5012198;28;20188;-72
2022/05/25 05:10:54;;;;;;;11.20;10.10;;;;;;;11.69;87.69;101334.00;5011415;28;20183;-72
2022/05/25 05:13:20;;;;;;;13.37;10.07;;;;;;;11.71;87.31;101337.44;5011702;28;20222;-71
2022/05/25 05:15:51;;;;;;;11.73;10.43;;;;;;;11.91;86.58;101335.31;5010199;28;20551;-72
2022/05/25 05:18:19;;;;;;;10.40;9.37;;;;;;;11.99;86.29;101342.34;5011691;28;20238;-72
2022/05/25 05:21:03;;;;;;;10.73;9.63;;;;;;;11.84;86.76;101333.47;5011534;28;20561;-72
2022/05/25 05:23:29;;;;;;;11.37;9.63;;;;;;;12.10;86.18;101340.00;5011505;28;20191;-72
2022/05/25 05:25:54;;;;;;;11.23;10.03;;;;;;;12.21;85.75;101336.00;5010999;28;20775;-72
2022/05/25 05:28:24;;;;;;;13.13;10.57;;;;;;;11.98;86.32;101339.78;5011736;28;20191;-70
2022/05/25 05:30:55;;;;;;;12.47;10.53;;;;;;;12.08;86.72;101341.69;5011578;28;20214;-71
2022/05/25 05:33:25;;;;;;;13.77;10.83;;;;;;;12.38;86.01;101342.31;5010905;28;20194;-71
2022/05/25 05:35:59;;;;;;;11.63;10.43;;;;;;;12.44;85.08;101334.75;5011459;28;20207;-72
2022/05/25 05:38:27;;;;;;;11.53;10.33;;;;;;;12.63;84.65;101347.09;5006425;28;20219;-71
2022/05/25 05:40:53;;;;;;;12.73;10.13;;;;;;;12.72;84.09;101337.00;4992155;28;20704;-73
2022/05/25 05:43:19;;;;;;;11.93;9.97;;;;;;;12.78;84.55;101339.69;5006548;28;20223;-72
2022/05/25 05:45:46;;;;;;;10.70;9.27;;;;;;;12.89;83.46;101346.75;5008504;28;20276;-72
2022/05/25 05:48:21;;;;;;;12.27;10.03;;;;;;;13.06;83.57;101339.34;5009270;28;20178;-72
2022/05/25 05:50:50;;;;;;;10.40;9.30;;;;;;;13.24;82.94;101343.94;5007383;28;20232;-72
2022/05/25 05:53:16;;;;;;;11.13;8.93;;;;;;;13.36;81.79;101334.75;5009534;28;20207;-72
2022/05/25 05:55:44;;;;;;;9.97;8.93;;;;;;;13.55;81.93;101339.31;5010116;28;20242;-72
2022/05/25 05:58:10;;;;;;;9.60;8.53;;;;;;;13.69;81.23;101337.81;5009616;28;20211;-72
2022/05/25 06:00:36;;;;;;;9.67;8.67;;;;;;;13.93;80.45;101342.44;5025428;28;20556;-72
2022/05/25 06:03:01;;;;;;;9.37;8.37;;;;;;;14.11;79.60;101340.97;5009835;28;20568;-72
2022/05/25 06:05:27;;;;;;;9.97;8.07;;;;;;;14.09;79.28;101337.50;5008851;28;20187;-72
2022/05/25 06:07:53;;;;;;;8.47;7.47;;;;;;;13.99;79.02;101350.25;5009673;28;20554;-72
2022/05/25 06:10:18;;;;;;;8.20;7.40;;;;;;;14.14;78.03;101346.16;5009548;28;20226;-72
2022/05/25 06:12:43;;;;;;;8.13;7.20;;;;;;;14.21;77.03;101353.16;5008942;28;20566;-72
2022/05/25 06:20:37;;;;;;;7.00;6.30;;;;;;;14.84;76.29;101353.03;5009271;28;20613;-72
2022/05/25 06:23:03;;;;;;;7.97;7.00;;;;;;;14.85;75.35;101349.59;5008923;28;20266;-72
2022/05/25 06:25:28;;;;;;;8.57;7.07;;;;;;;14.73;75.31;101341.75;5010556;28;20191;-72
2022/05/25 06:27:54;;;;;;;7.10;6.40;;;;;;;15.14;74.32;101355.94;5008705;28;20175;-72
2022/05/25 06:30:20;;;;;;;7.23;6.33;;;;;;;15.34;73.66;101347.50;5010559;28;20210;-73
2022/05/25 06:32:45;;;;;;;9.17;6.80;;;;;;;15.13;73.61;101359.34;5010368;28;20199;-72
2022/05/25 06:35:10;;;;;;;7.47;6.67;;;;;;;15.16;73.99;101362.84;5008613;28;20199;-72
2022/05/25 06:37:36;;;;;;;8.20;7.03;;;;;;;15.42;73.24;101357.94;5010248;28;20218;-72
2022/05/25 06:40:02;;;;;;;7.23;6.50;;;;;;;15.46;72.59;101365.69;5009568;28;20191;-72
2022/05/25 06:42:28;;;;;;;7.90;7.10;;;;;;;15.33;72.38;101368.13;5008974;28;20191;-72
2022/05/25 06:44:53;;;;;;;8.43;7.37;;;;;;;15.12;73.75;101366.22;5008059;28;20257;-72
2022/05/25 06:47:18;;;;;;;7.50;6.70;;;;;;;15.52;72.60;101357.97;5010146;28;20210;-72
2022/05/25 06:49:44;;;;;;;7.50;6.63;;;;;;;15.54;72.48;101358.88;5010317;28;20188;-72
2022/05/25 06:52:12;;;;;;;8.17;6.93;;;;;;;15.86;71.59;101356.50;5009975;28;20681;-72
2022/05/25 06:54:38;;;;;;;8.70;6.63;;;;;;;15.87;71.46;101360.81;5009800;28;20245;-73
2022/05/25 06:57:04;;;;;;;6.60;6.00;;;;;;;16.04;71.14;101361.78;5009476;28;20211;-72
2022/05/25 06:59:29;;;;;;;8.17;5.57;;;;;;;16.41;68.63;101356.84;5010018;28;20738;-72
2022/05/25 07:01:54;;;;;;;6.13;5.40;;;;;;;16.56;69.08;101369.81;5010311;28;20226;-72
2022/05/25 07:04:21;;;;;;;6.13;5.53;;;;;;;15.99;68.60;101364.34;5008523;28;20195;-72
2022/05/25 07:06:46;;;;;;;7.27;6.30;;;;;;;16.46;69.32;101362.00;5024941;28;20330;-72
2022/05/25 07:09:12;;;;;;;9.40;6.17;;;;;;;16.70;66.25;101360.38;4985653;28;20243;-72
2022/05/25 07:11:39;;;;;;;6.70;5.43;;;;;;;16.96;64.69;101363.03;5009526;28;20195;-72
2022/05/25 07:14:05;;;;;;;5.30;4.80;;;;;;;17.18;66.12;101364.78;5011551;28;20222;-72
2022/05/25 07:16:31;;;;;;;6.57;4.50;;;;;;;16.78;65.62;101368.16;5024104;28;20608;-72
2022/05/25 07:18:57;;;;;;;5.43;4.87;;;;;;;16.32;65.96;101373.97;5008702;28;20245;-72
2022/05/25 07:21:27;;;;;;;6.57;4.53;;;;;;;16.77;64.46;101362.09;5000785;28;20239;-72
2022/05/25 07:23:54;;;;;;;5.20;4.70;;;;;;;16.95;64.16;101374.25;4996682;28;20202;-72
2022/05/25 07:26:22;;;;;;;5.27;4.00;;;;;;;16.92;63.96;101371.63;5007773;28;20210;-72
2022/05/25 07:28:47;;;;;;;6.03;4.53;;;;;;;16.38;63.76;101382.63;5008310;28;20222;-71
2022/05/25 07:31:35;;;;;;;5.10;3.93;;;;;;;17.10;61.97;101382.03;5008775;28;20680;-71
2022/05/25 07:34:03;;;;;;;5.77;3.73;;;;;;;17.37;60.56;101377.72;5011631;28;20281;-71
2022/05/25 07:36:29;;;;;;;5.00;4.40;;;;;;;17.32;60.97;101376.84;5012881;28;20663;-71
2022/05/25 07:38:59;;;;;;;3.57;3.27;;;;;;;17.90;59.01;101382.91;5013482;28;20763;-71
2022/05/25 07:41:25;;;;;;;4.03;3.20;;;;;;;17.80;59.31;101386.38;5017898;28;20228;-71
2022/05/25 07:43:57;;;;;;;3.97;3.57;;;;;;;17.32;59.21;101378.59;5011419;28;20270;-71
2022/05/25 07:46:26;;;;;;;3.37;3.00;;;;;;;17.75;59.20;101391.59;5024601;28;20272;-71
2022/05/25 07:48:52;;;;;;;4.67;3.53;;;;;;;18.11;57.96;101388.06;4992161;28;20595;-71
2022/05/25 07:51:18;;;;;;;4.27;3.20;;;;;;;18.50;56.46;101385.34;5010883;28;20207;-72
2022/05/25 07:53:56;;;;;;;4.27;3.03;;;;;;;18.92;55.37;101378.22;5012208;28;20187;-71
2022/05/25 07:56:48;;;;;;;3.60;2.80;;;;;;;17.99;56.76;101390.66;5013349;28;20210;-71
2022/05/25 07:59:15;;;;;;;3.90;3.13;;;;;;;18.14;57.58;101381.13;5010195;28;20281;-71
2022/05/25 08:07:24;;;;;;;3.73;3.00;;;;;;;18.20;57.22;101375.91;5013088;28;20218;-71
2022/05/25 08:09:54;;;;;;;3.50;2.57;;;;;;;18.02;57.30;101382.91;5012435;28;20552;-71
2022/05/25 08:12:20;;;;;;;2.73;2.37;;;;;;;18.22;55.21;101383.69;5012852;28;20202;-71
2022/05/25 08:14:45;;;;;;;2.43;2.03;;;;;;;18.30;54.21;101384.53;5012565;28;20202;-71
2022/05/25 08:17:11;;;;;;;6.23;2.50;;;;;;;18.11;54.68;101380.28;5012708;28;20218;-71
2022/05/25 08:19:38;;;;;;;4.50;2.20;;;;;;;18.35;53.89;101381.09;5012798;28;20225;-71
2022/05/25 08:22:03;;;;;;;4.03;2.13;;;;;;;18.65;52.97;101377.53;5012321;28;20183;-72
2022/05/25 08:24:29;;;;;;;3.00;1.90;;;;;;;18.93;53.31;101377.34;5012649;28;20616;-71
2022/05/25 08:26:54;;;;;;;1.77;1.67;;;;;;;19.06;51.12;101372.94;5012212;28;20226;-71
2022/05/25 08:29:21;;;;;;;2.90;1.77;;;;;;;18.19;51.71;101368.16;5008287;28;20196;-71
2022/05/25 08:31:47;;;;;;;2.63;2.30;;;;;;;17.72;54.49;101378.63;5002682;28;20245;-71
2022/05/25 08:34:12;;;;;;;2.53;2.10;;;;;;;18.67;52.17;101376.66;5011979;28;20191;-71
2022/05/25 08:36:37;;;;;;;1.63;1.50;;;;;;;18.67;49.90;101374.06;5012509;28;20223;-71
2022/05/25 08:39:03;;;;;;;2.13;1.90;;;;;;;18.58;52.24;101373.22;5011748;28;20214;-72
2022/05/25 08:41:37;;;;;;;2.70;1.80;;;;;;;19.06;51.09;101370.34;5012626;28;20199;-71
2022/05/25 08:44:04;;;;;;;2.10;1.60;;;;;;;18.46;51.55;101366.34;5011031;28;20210;-72
2022/05/25 08:46:31;;;;;;;2.97;1.90;;;;;;;18.62;53.14;101368.03;5012033;28;20210;-71
2022/05/25 08:49:01;;;;;;;3.60;2.07;;;;;;;19.48;49.24;101360.53;5011824;28;20199;-72
2022/05/25 08:51:29;;;;;;;2.47;2.20;;;;;;;19.26;50.18;101364.16;5012552;28;20195;-71
2022/05/25 08:54:01;;;;;;;3.80;1.77;;;;;;;19.55;50.01;101366.53;5012146;28;20217;-72
2022/05/25 08:56:32;;;;;;;2.93;1.83;;;;;;;19.11;49.62;101372.03;5011811;28;20877;-71
2022/05/25 08:59:05;;;;;;;1.83;1.30;;;;;;;19.55;48.14;101370.00;5012138;28;20215;-71
2022/05/25 09:01:42;;;;;;;2.03;1.70;;;;;;;19.56;48.85;101368.25;5011409;28;20274;-71
2022/05/25 09:04:29;;;;;;;2.70;1.63;;;;;;;19.26;47.19;101377.16;5011616;28;20191;-71
2022/05/25 09:07:08;;;;;;;1.93;1.47;;;;;;;19.49;49.15;101370.03;5011353;28;20223;-71
2022/05/25 09:09:46;;;;;;;2.10;1.60;;;;;;;19.26;47.35;101373.72;5011887;28;20214;-71
2022/05/25 09:12:54;;;;;;;2.10;1.30;;;;;;;19.82;45.83;101361.09;5010138;28;20541;-73
2022/05/25 09:15:23;;;;;;;2.23;1.30;;;;;;;19.73;46.89;101362.03;5011358;28;20261;-71
2022/05/25 09:17:56;;;;;;;3.73;1.87;;;;;;;19.66;47.62;101367.31;5011120;28;20207;-71
2022/05/25 09:20:28;;;;;;;2.00;1.80;;;;;;;20.11;46.01;101362.53;5011601;28;20175;-71
2022/05/25 09:22:54;;;;;;;2.63;1.30;;;;;;;20.08;47.15;101361.72;5011595;28;20187;-71
2022/05/25 09:25:21;;;;;;;1.90;1.40;;;;;;;20.46;45.70;101351.72;5011333;28;20231;-71
2022/05/25 09:27:57;;;;;;;2.00;1.50;;;;;;;20.38;47.05;101349.22;5011177;28;20217;-71
2022/05/25 09:30:23;;;;;;;1.90;1.33;;;;;;;20.49;45.95;101343.88;4993860;28;20210;-71
2022/05/25 09:33:01;;;;;;;2.67;1.20;;;;;;;19.95;45.63;101352.28;5011219;28;20208;-71
2022/05/25 09:35:38;;;;;;;3.03;1.30;;;;;;;19.11;47.50;101360.81;5010628;28;20676;-72
2022/05/25 09:38:11;;;;;;;2.30;1.30;;;;;;;18.99;47.17;101364.34;5006724;28;20218;-71
2022/05/25 09:40:49;;;;;;;2.57;1.83;;;;;;;19.51;47.31;101357.91;4991335;28;20192;-71
2022/05/25 09:43:20;;;;;;;2.00;1.37;;;;;;;19.88;45.61;101359.28;5002118;28;20210;-71
2022/05/25 09:45:55;;;;;;;1.67;1.57;;;;;;;19.46;46.30;101357.09;5010352;28;20198;-71
2022/05/25 09:48:27;;;;;;;1.73;1.13;;;;;;;19.53;46.29;101369.13;5011064;28;20244;-71
2022/05/25 09:51:11;;;;;;;1.47;1.00;;;;;;;19.77;46.55;101366.31;5010729;28;20217;-71
2022/05/25 09:53:43;;;;;;;1.70;1.30;;;;;;;19.32;45.34;101374.53;5010696;28;20302;-71
2022/05/25 09:56:20;;;;;;;1.20;1.00;;;;;;;19.72;45.63;101369.84;5009307;28;20214;-71
2022/05/25 09:58:51;;;;;;;1.47;1.10;;;;;;;19.84;45.48;101369.72;5010776;28;20585;-71
2022/05/25 10:01:47;;;;;;;3.27;1.10;;;;;;;20.08;44.98;101370.34;5011099;28;20633;-71
2022/05/25 10:04:37;;;;;;;2.70;1.50;;;;;;;19.77;46.51;101374.09;5010945;28;20194;-71
2022/05/25 10:07:17;;;;;;;1.50;1.40;;;;;;;19.20;46.71;101373.72;5010543;28;20689;-71
2022/05/25 10:09:50;;;;;;;2.20;1.30;;;;;;;19.50;48.01;101370.91;5009679;28;20223;-71
2022/05/25 10:12:30;;;;;;;1.90;1.50;;;;;;;18.99;47.84;101368.66;5010677;28;20233;-71
2022/05/25 10:15:07;;;;;;;2.87;1.10;;;;;;;19.35;47.68;101363.25;5008940;28;20218;-71
2022/05/25 10:17:35;;;;;;;2.17;1.50;;;;;;;19.12;47.39;101365.97;5010477;28;20305;-74
2022/05/25 10:20:01;;;;;;;1.67;1.10;;;;;;;19.12;48.33;101378.94;5010237;28;20257;-72
2022/05/25 10:22:36;;;;;;;2.63;1.20;;;;;;;19.73;46.42;101358.56;5010891;28;20191;-72
2022/05/25 10:25:20;;;;;;;1.70;1.37;;;;;;;20.55;44.36;101364.59;5010134;28;20182;-72
2022/05/25 10:27:46;;;;;;;2.97;1.23;;;;;;;20.58;43.73;101362.81;4995738;28;20341;-72
2022/05/25 10:39:14;;;;;;;2.10;1.17;;;;;;;21.19;43.99;101358.47;5009628;28;20207;-72
2022/05/25 10:41:41;;;;;;;1.40;1.10;;;;;;;21.69;42.79;101349.88;5009568;28;20183;-72
2022/05/25 10:44:17;;;;;;;1.67;1.43;;;;;;;21.01;43.07;101347.50;5008815;28;20206;-72
2022/05/25 10:46:51;;;;;;;2.03;1.03;;;;;;;20.69;44.18;101339.25;5009453;28;20214;-72
2022/05/25 10:49:40;;;;;;;4.13;1.23;;;;;;;20.34;44.50;101355.31;5010356;28;20167;-72
2022/05/25 10:52:15;;;;;;;1.63;1.13;;;;;;;20.27;43.98;101348.47;5005313;28;20278;-72
2022/05/25 10:54:45;;;;;;;3.10;1.20;;;;;;;20.75;43.51;101342.63;5006250;28;20195;-72
2022/05/25 10:57:25;;;;;;;1.10;0.90;;;;;;;21.64;42.93;101342.09;5009618;28;20246;-72
2022/05/25 11:00:04;;;;;;;1.73;1.10;;;;;;;21.49;41.89;101347.56;4997969;28;20614;-74
2022/05/25 11:02:50;;;;;;;1.97;1.10;;;;;;;20.94;40.83;101345.84;5009812;28;20186;-72
2022/05/25 11:05:31;;;;;;;1.93;1.30;;;;;;;20.27;43.47;101347.63;5008142;28;20190;-72
2022/05/25 11:08:14;;;;;;;2.50;1.00;;;;;;;20.17;44.78;101349.44;5008050;28;20589;-72
2022/05/25 11:10:50;;;;;;;1.50;0.90;;;;;;;20.58;43.69;101344.59;5005269;28;20183;-72
2022/05/25 11:13:36;;;;;;;1.23;0.83;;;;;;;21.26;43.53;101348.81;5009346;28;20281;-73
2022/05/25 11:16:20;;;;;;;2.20;1.03;;;;;;;21.25;42.54;101344.50;5009344;28;20232;-72
2022/05/25 11:19:06;;;;;;;1.20;0.70;;;;;;;20.98;41.13;101344.94;5009750;28;20207;-73
2022/05/25 11:22:09;;;;;;;1.40;0.90;;;;;;;21.29;42.29;101348.78;5008177;28;20198;-73
2022/05/25 11:25:06;;;;;;;1.17;0.70;;;;;;;21.70;41.96;101343.75;4990088;28;20195;-73
2022/05/25 11:27:59;;;;;;;1.90;0.90;;;;;;;21.03;39.38;101351.81;5002011;28;20273;-73
2022/05/25 11:30:34;;;;;;;1.17;0.90;;;;;;;20.76;42.27;101346.94;5001601;28;20195;-73
2022/05/25 11:33:24;;;;;;;1.93;0.90;;;;;;;21.06;41.43;101343.91;5008008;28;20202;-73
2022/05/25 11:36:04;;;;;;;1.23;0.80;;;;;;;22.59;40.82;101342.00;5035822;28;20519;-73
2022/05/25 11:39:14;;;;;;;3.23;0.97;;;;;;;21.37;41.53;101342.56;5009111;28;20211;-73
2022/05/25 11:41:48;;;;;;;1.80;0.60;;;;;;;20.66;41.71;101339.28;5022000;28;20206;-73
2022/05/25 11:44:40;;;;;;;3.33;0.97;;;;;;;20.49;42.22;101344.72;5028694;28;20171;-73
2022/05/25 11:47:39;;;;;;;1.40;0.80;;;;;;;21.02;42.65;101341.41;5012478;28;20716;-73
2022/05/25 11:50:44;;;;;;;1.17;0.60;;;;;;;21.57;42.35;101342.22;5007854;28;20245;-73
2022/05/25 11:53:26;;;;;;;1.30;0.90;;;;;;;21.15;44.59;101341.16;5018674;28;20723;-73
2022/05/25 11:56:28;;;;;;;0.93;0.80;;;;;;;22.12;43.00;101338.56;5027096;28;20210;-73
2022/05/25 11:58:56;;;;;;;0.97;0.70;;;;;;;22.35;41.26;101332.91;5027807;28;20255;-74
2022/05/25 12:01:37;;;;;;;0.87;0.70;;;;;;;22.19;42.13;101327.13;5028706;28;20194;-75
2022/05/25 12:04:32;;;;;;;0.80;0.60;;;;;;;22.00;41.42;101331.00;5027790;28;20186;-74
2022/05/25 12:07:39;;;;;;;1.23;0.80;;;;;;;21.91;42.63;101331.19;5028645;28;20854;-74
2022/05/25 12:10:23;;;;;;;1.17;0.70;;;;;;;21.08;42.89;101323.06;5028870;28;20190;-73
2022/05/25 12:12:57;;;;;;;3.03;0.80;;;;;;;21.57;41.44;101327.44;5027604;28;20221;-73